Time;durP1;ratioP1;P1;durP2;ratioP2;P2;SDS_P1;SDS_P2;PMS_P1;PMS_P2;Temp;Humidity;BMP_temperature;BMP_pressure;BME280_temperature;BME280_humidity;BME280_pressure;Samples;Min_cycle;Max_cycle;Signal;HPM_P1;HPM_P2
2020/12/03 00:00:42;;;;;;;5.87;3.87;;;21.60;46.60;;;;;;578290;95;3002402;-34
2020/12/03 00:03:18;;;;;;;8.48;4.45;;;21.60;46.70;;;;;;584811;93;3002441;-33
2020/12/03 00:05:52;;;;;;;5.55;4.08;;;21.60;46.80;;;;;;592440;91;3001995;-33
2020/12/03 00:08:20;;;;;;;8.40;5.35;;;21.60;46.70;;;;;;596894;92;3001941;-32
2020/12/03 00:10:47;;;;;;;6.53;4.03;;;21.60;47.20;;;;;;592829;92;3002406;-32
2020/12/03 00:13:20;;;;;;;7.47;4.37;;;21.60;46.70;;;;;;585887;92;3003147;-32
2020/12/03 00:15:49;;;;;;;;;;;21.60;46.70;;;;;;588084;94;3002329;-33
2020/12/03 00:18:16;;;;;;;8.70;4.35;;;21.60;46.70;;;;;;589819;92;3001971;-32
2020/12/03 00:20:45;;;;;;;8.53;4.53;;;21.60;46.60;;;;;;589552;93;3001954;-33
2020/12/03 00:23:13;;;;;;;5.67;4.15;;;21.50;46.60;;;;;;589846;92;3002264;-32
2020/12/03 00:25:41;;;;;;;7.08;4.25;;;21.50;46.60;;;;;;583960;93;3002021;-33
2020/12/03 00:28:08;;;;;;;8.45;4.15;;;21.50;46.60;;;;;;584134;92;3002650;-32
2020/12/03 00:30:36;;;;;;;5.08;3.47;;;21.50;46.60;;;;;;589681;92;3002000;-32
2020/12/03 00:33:03;;;;;;;7.25;3.50;;;21.50;46.50;;;;;;585961;94;3002268;-32
2020/12/03 00:35:31;;;;;;;7.92;3.83;;;21.50;46.40;;;;;;590011;94;3002175;-36
2020/12/03 00:37:59;;;;;;;8.13;4.37;;;21.50;46.30;;;;;;591973;92;3002000;-33
2020/12/03 00:40:26;;;;;;;6.72;3.85;;;21.50;46.30;;;;;;593533;92;3002139;-33
2020/12/03 00:42:56;;;;;;;6.37;3.85;;;21.50;46.20;;;;;;589471;94;3002361;-33
2020/12/03 00:45:24;;;;;;;6.30;3.62;;;21.50;46.20;;;;;;591130;92;3002157;-32
2020/12/03 00:47:52;;;;;;;6.90;4.47;;;21.50;46.10;;;;;;596181;92;3002561;-32
2020/12/03 00:50:19;;;;;;;8.70;4.20;;;21.50;46.10;;;;;;589245;94;3002376;-33
2020/12/03 00:52:47;;;;;;;6.22;4.17;;;21.50;46.10;;;;;;592717;93;3001965;-32
2020/12/03 00:55:15;;;;;;;6.87;4.20;;;21.40;46.00;;;;;;592170;92;3002627;-32
2020/12/03 00:57:43;;;;;;;7.30;3.90;;;21.40;46.00;;;;;;585178;92;3001973;-32
2020/12/03 01:00:13;;;;;;;9.80;4.08;;;21.40;46.10;;;;;;592574;92;3002108;-32
2020/12/03 01:02:41;;;;;;;6.33;3.92;;;21.50;46.10;;;;;;586180;93;3001977;-36
2020/12/03 01:05:11;;;;;;;7.40;3.90;;;21.40;46.30;;;;;;589572;93;3003083;-32
2020/12/03 01:07:39;;;;;;;9.43;4.83;;;21.40;46.00;;;;;;579047;94;3001950;-33
2020/12/03 01:10:10;;;;;;;5.47;3.92;;;21.40;46.10;;;;;;593861;92;3003438;-32
2020/12/03 01:12:37;;;;;;;5.58;3.67;;;21.40;46.10;;;;;;587423;93;3002379;-33
2020/12/03 01:15:06;;;;;;;7.30;3.83;;;21.40;46.30;;;;;;591283;93;3001680;-32
2020/12/03 01:17:34;;;;;;;6.58;4.00;;;21.40;46.60;;;;;;586203;94;3002045;-32
2020/12/03 01:20:01;;;;;;;7.97;4.33;;;21.40;46.60;;;;;;595451;93;3002405;-32
2020/12/03 01:22:29;;;;;;;4.95;3.90;;;21.40;46.60;;;;;;588521;92;3002738;-33
2020/12/03 01:24:56;;;;;;;6.35;3.75;;;21.40;46.80;;;;;;587913;93;3002919;-32
2020/12/03 01:27:24;;;;;;;7.67;4.17;;;21.40;46.80;;;;;;585254;94;3002030;-32
2020/12/03 01:29:51;;;;;;;6.53;3.50;;;21.40;46.90;;;;;;590180;94;3003287;-32
2020/12/03 01:32:20;;;;;;;4.67;3.62;;;21.40;46.90;;;;;;584288;94;3002319;-33
2020/12/03 01:34:47;;;;;;;4.85;3.70;;;21.40;46.80;;;;;;585433;94;3001615;-33
2020/12/03 01:37:19;;;;;;;4.33;3.25;;;21.40;46.80;;;;;;588604;94;3002956;-32
2020/12/03 01:39:46;;;;;;;5.97;3.75;;;21.40;46.70;;;;;;597440;92;3002336;-33
2020/12/03 01:42:14;;;;;;;4.80;3.42;;;21.40;46.70;;;;;;597609;92;3002325;-32
2020/12/03 01:44:45;;;;;;;5.58;3.92;;;21.40;46.60;;;;;;588348;94;3001922;-32
2020/12/03 01:47:25;;;;;;;6.17;3.65;;;21.40;46.60;;;;;;583929;94;3003755;-32
2020/12/03 01:49:53;;;;;;;4.72;3.45;;;21.40;46.60;;;;;;592381;93;3002010;-32
2020/12/03 01:52:21;;;;;;;6.78;3.80;;;21.30;46.50;;;;;;593850;91;3002356;-33
2020/12/03 01:54:49;;;;;;;5.08;3.87;;;21.30;46.50;;;;;;582515;94;3002343;-33
2020/12/03 01:57:37;;;;;;;6.50;3.58;;;21.30;46.40;;;;;;584342;95;3002552;-33
2020/12/03 02:00:14;;;;;;;5.78;4.03;;;21.30;46.40;;;;;;596068;92;3002788;-32
2020/12/03 02:02:48;;;;;;;5.85;3.35;;;21.30;46.40;;;;;;590787;92;3002306;-33
2020/12/03 02:05:18;;;;;;;5.47;3.42;;;21.30;46.30;;;;;;594332;92;3001952;-34
2020/12/03 02:07:47;;;;;;;5.58;3.42;;;21.30;46.20;;;;;;584717;94;3001986;-33
2020/12/03 02:10:16;;;;;;;4.37;3.25;;;21.30;46.20;;;;;;587717;92;3002060;-32
2020/12/03 02:12:44;;;;;;;5.20;3.42;;;21.30;46.20;;;;;;588620;94;3001614;-33
2020/12/03 02:15:12;;;;;;;5.55;3.62;;;21.30;46.20;;;;;;583988;94;3001644;-33
2020/12/03 02:17:41;;;;;;;4.85;3.50;;;21.30;46.30;;;;;;581829;92;3001589;-34
2020/12/03 02:20:11;;;;;;;4.03;3.30;;;21.30;46.30;;;;;;589126;94;3002159;-33
2020/12/03 02:22:40;;;;;;;5.78;3.72;;;21.30;46.40;;;;;;590715;92;3001906;-33
2020/12/03 02:25:08;;;;;;;4.92;3.52;;;21.20;46.40;;;;;;585280;94;3002104;-33
2020/12/03 02:27:37;;;;;;;7.33;3.80;;;21.30;46.50;;;;;;592664;92;3002007;-33
2020/12/03 02:30:07;;;;;;;4.47;3.02;;;21.30;46.70;;;;;;580125;94;3002283;-33
2020/12/03 02:32:35;;;;;;;4.87;3.20;;;21.30;46.70;;;;;;589201;92;3001936;-33
2020/12/03 02:35:05;;;;;;;6.22;4.00;;;21.30;46.70;;;;;;586093;94;3002256;-33
2020/12/03 02:37:32;;;;;;;4.53;2.95;;;21.30;46.80;;;;;;591528;94;3001977;-32
2020/12/03 02:40:01;;;;;;;4.70;3.27;;;21.30;46.80;;;;;;590738;93;3002348;-33
2020/12/03 02:42:29;;;;;;;5.55;3.42;;;21.20;46.70;;;;;;597423;91;3002407;-32
2020/12/03 02:44:56;;;;;;;5.35;3.45;;;21.30;46.80;;;;;;587933;94;3003031;-33
2020/12/03 02:47:25;;;;;;;4.55;2.98;;;21.30;46.80;;;;;;592829;94;3002309;-33
2020/12/03 02:49:53;;;;;;;4.33;3.25;;;21.20;46.70;;;;;;597327;93;3001965;-32
2020/12/03 02:52:23;;;;;;;4.12;2.80;;;21.30;46.80;;;;;;593644;92;3002021;-34
2020/12/03 02:54:52;;;;;;;5.78;3.75;;;21.30;46.80;;;;;;580885;93;3002053;-34
2020/12/03 02:57:21;;;;;;;4.80;3.50;;;21.30;46.70;;;;;;596163;92;3001749;-35
2020/12/03 02:59:49;;;;;;;4.22;3.35;;;21.30;46.70;;;;;;589081;93;3001644;-32
2020/12/03 03:02:17;;;;;;;4.50;3.08;;;21.40;46.70;;;;;;598378;92;3001921;-32
2020/12/03 03:04:45;;;;;;;5.30;3.40;;;21.40;46.80;;;;;;596774;92;3001611;-34
2020/12/03 03:07:13;;;;;;;5.85;3.90;;;21.40;46.80;;;;;;591542;94;3001636;-34
2020/12/03 03:09:40;;;;;;;3.77;2.90;;;21.40;46.80;;;;;;596299;92;3003099;-33
2020/12/03 03:12:08;;;;;;;3.95;3.10;;;21.40;46.80;;;;;;595727;93;3002003;-32
2020/12/03 03:14:40;;;;;;;5.50;3.12;;;21.40;46.80;;;;;;590325;93;3002382;-33
2020/12/03 03:17:05;;;;;;;3.80;3.17;;;21.40;46.70;;;;;;592600;93;3002414;-33
2020/12/03 03:19:33;;;;;;;4.15;3.12;;;21.50;46.80;;;;;;593099;93;3002338;-33
2020/12/03 03:22:01;;;;;;;6.10;3.65;;;21.40;46.70;;;;;;594258;93;3002538;-34
2020/12/03 03:24:28;;;;;;;5.15;3.75;;;21.50;46.70;;;;;;594161;92;3002412;-33
2020/12/03 03:26:56;;;;;;;4.50;2.98;;;21.40;46.60;;;;;;598280;91;3003200;-33
2020/12/03 03:29:24;;;;;;;4.95;3.20;;;21.50;46.60;;;;;;587936;92;3002857;-32
2020/12/03 03:31:51;;;;;;;3.83;2.90;;;21.50;46.60;;;;;;592998;93;3002275;-32
2020/12/03 03:34:19;;;;;;;3.75;3.00;;;21.50;46.60;;;;;;595534;93;3003335;-33
2020/12/03 03:36:46;;;;;;;3.98;2.87;;;21.50;46.60;;;;;;591963;93;3003338;-33
2020/12/03 03:39:20;;;;;;;4.22;2.95;;;21.50;46.60;;;;;;593019;93;3002076;-33
2020/12/03 03:41:47;;;;;;;4.62;3.05;;;21.50;46.60;;;;;;594644;92;3001996;-33
2020/12/03 03:44:15;;;;;;;3.75;2.83;;;21.50;46.60;;;;;;595843;92;3002229;-33
2020/12/03 03:46:43;;;;;;;4.85;3.08;;;21.50;46.60;;;;;;601888;91;3002449;-33
2020/12/03 03:49:11;;;;;;;4.20;3.02;;;21.50;46.50;;;;;;592502;93;3001949;-33
2020/12/03 03:51:38;;;;;;;3.62;2.55;;;21.50;46.50;;;;;;589958;94;3002880;-33
2020/12/03 03:54:06;;;;;;;3.77;2.90;;;21.50;46.50;;;;;;597776;92;3002772;-33
2020/12/03 03:56:34;;;;;;;4.53;3.00;;;21.50;46.50;;;;;;597976;92;3002096;-33
2020/12/03 03:59:01;;;;;;;3.42;2.42;;;21.50;46.50;;;;;;593189;93;3002663;-33
2020/12/03 04:01:29;;;;;;;3.75;2.70;;;21.60;46.50;;;;;;592496;94;3001923;-33
2020/12/03 04:03:56;;;;;;;4.80;3.27;;;21.60;46.50;;;;;;598098;93;3002147;-32
2020/12/03 04:06:24;;;;;;;3.83;2.80;;;21.60;47.20;;;;;;593575;93;3002190;-33
2020/12/03 04:08:52;;;;;;;2.90;2.60;;;21.60;46.80;;;;;;592215;91;3002475;-32
2020/12/03 04:11:19;;;;;;;4.35;3.10;;;21.60;46.90;;;;;;593672;91;3002514;-33
2020/12/03 04:13:47;;;;;;;5.75;3.05;;;21.60;46.90;;;;;;594144;92;3002554;-32
2020/12/03 04:16:14;;;;;;;5.08;2.70;;;21.60;47.00;;;;;;593629;92;3001958;-33
2020/12/03 04:18:42;;;;;;;3.90;2.80;;;21.60;47.00;;;;;;589800;93;3002340;-33
2020/12/03 04:21:11;;;;;;;4.58;2.85;;;21.60;47.00;;;;;;586332;95;3002328;-33
2020/12/03 04:23:38;;;;;;;3.15;2.42;;;21.60;47.00;;;;;;586109;94;3002770;-33
2020/12/03 04:26:06;;;;;;;3.35;2.52;;;21.60;47.00;;;;;;589698;93;3002347;-32
2020/12/03 04:28:33;;;;;;;3.95;3.12;;;21.60;47.00;;;;;;592525;91;3002002;-32
2020/12/03 04:31:01;;;;;;;3.37;2.70;;;21.60;47.00;;;;;;583333;93;3002433;-33
2020/12/03 04:33:28;;;;;;;3.30;2.47;;;21.60;46.60;;;;;;587158;93;3002365;-34
2020/12/03 04:35:56;;;;;;;3.27;2.75;;;21.60;47.00;;;;;;591073;92;3001944;-33
2020/12/03 04:38:24;;;;;;;3.42;2.80;;;21.60;46.90;;;;;;584448;93;3002330;-32
2020/12/03 04:40:52;;;;;;;4.67;3.12;;;21.60;46.90;;;;;;597487;92;3003485;-32
2020/12/03 04:43:37;;;;;;;3.45;3.08;;;21.60;46.90;;;;;;584711;93;3002229;-32
2020/12/03 04:46:25;;;;;;;3.17;2.50;;;21.60;46.90;;;;;;587092;92;3002932;-32
2020/12/03 04:49:24;;;;;;;3.45;2.70;;;21.60;46.90;;;;;;596268;92;3001903;-32
2020/12/03 04:52:22;;;;;;;3.92;2.72;;;21.60;46.90;;;;;;595275;92;3002340;-33
2020/12/03 04:54:50;;;;;;;4.00;2.85;;;21.60;46.90;;;;;;594182;92;3003477;-33
2020/12/03 04:57:32;;;;;;;3.33;2.85;;;21.60;46.90;;;;;;584060;92;3002283;-33
2020/12/03 05:00:15;;;;;;;3.62;2.77;;;21.60;46.90;;;;;;588313;92;3002375;-32
2020/12/03 05:02:54;;;;;;;2.85;2.58;;;21.60;46.90;;;;;;583851;92;3001929;-32
2020/12/03 05:05:37;;;;;;;3.80;2.47;;;21.50;46.80;;;;;;591574;92;3002491;-32
2020/12/03 05:08:13;;;;;;;2.90;2.40;;;21.50;46.70;;;;;;592646;92;3002004;-35
2020/12/03 05:10:46;;;;;;;4.65;2.85;;;21.60;46.80;;;;;;584698;92;3002507;-35
2020/12/03 05:13:23;;;;;;;4.10;2.70;;;21.60;46.70;;;;;;594817;92;3001994;-33
2020/12/03 05:16:02;;;;;;;4.25;2.65;;;21.50;46.60;;;;;;587537;92;3003854;-32
2020/12/03 05:18:38;;;;;;;2.85;2.55;;;21.60;46.70;;;;;;589008;93;3001988;-33
2020/12/03 05:21:09;;;;;;;3.33;2.20;;;21.60;47.30;;;;;;578597;95;3002075;-33
2020/12/03 05:23:37;;;;;;;2.62;2.27;;;21.60;46.70;;;;;;589128;93;3002371;-32
2020/12/03 05:26:07;;;;;;;4.17;2.60;;;21.60;46.70;;;;;;581494;94;3002415;-33
2020/12/03 05:28:40;;;;;;;3.25;2.22;;;21.60;46.90;;;;;;569200;97;3002052;-33
2020/12/03 05:31:11;;;;;;;2.80;2.47;;;21.60;46.70;;;;;;586679;93;3002506;-34
2020/12/03 05:33:39;;;;;;;2.42;2.17;;;21.60;46.60;;;;;;578848;95;3003325;-32
2020/12/03 05:36:21;;;;;;;2.65;2.15;;;21.60;46.60;;;;;;589166;93;3001985;-33
2020/12/03 05:38:50;;;;;;;3.15;2.50;;;21.60;46.60;;;;;;587824;93;3001945;-32
2020/12/03 05:41:20;;;;;;;3.85;2.55;;;21.60;46.60;;;;;;577282;94;3001981;-32
2020/12/03 05:43:48;;;;;;;2.85;2.40;;;21.60;46.60;;;;;;586868;94;3002234;-32
2020/12/03 05:46:18;;;;;;;5.47;3.22;;;21.60;46.60;;;;;;588669;92;3001609;-32
2020/12/03 05:49:04;;;;;;;5.47;2.80;;;21.60;46.70;;;;;;590417;93;3001955;-32
2020/12/03 05:51:34;;;;;;;7.92;3.12;;;21.60;46.70;;;;;;580434;94;3002333;-34
2020/12/03 05:54:05;;;;;;;6.35;2.85;;;21.60;46.90;;;;;;589616;94;3002667;-33
2020/12/03 05:56:32;;;;;;;10.05;3.35;;;21.60;46.90;;;;;;578950;95;3002112;-32
2020/12/03 05:59:15;;;;;;;7.95;3.17;;;21.60;47.00;;;;;;582254;93;3002022;-33
2020/12/03 06:01:45;;;;;;;8.18;3.47;;;21.60;47.10;;;;;;586773;93;3002000;-35
2020/12/03 06:04:31;;;;;;;6.85;3.47;;;21.60;47.20;;;;;;590935;92;3002303;-32
2020/12/03 06:07:28;;;;;;;8.58;3.58;;;21.70;47.70;;;;;;574381;95;3002971;-32
2020/12/03 06:10:04;;;;;;;7.05;3.05;;;21.60;47.40;;;;;;591882;93;3001738;-32
2020/12/03 06:12:58;;;;;;;8.43;3.05;;;21.60;47.40;;;;;;581467;95;3003369;-32
2020/12/03 06:15:38;;;;;;;5.65;3.12;;;21.60;47.50;;;;;;582870;93;3002368;-35
2020/12/03 06:18:43;;;;;;;6.62;2.87;;;21.70;47.60;;;;;;601045;90;3002504;-34
2020/12/03 06:21:26;;;;;;;5.08;2.83;;;21.70;47.50;;;;;;601931;90;3002004;-36
2020/12/03 06:24:17;;;;;;;8.33;3.00;;;21.70;47.40;;;;;;597619;90;3002005;-33
2020/12/03 06:27:00;;;;;;;8.90;2.83;;;21.70;47.40;;;;;;599041;90;3002068;-32
2020/12/03 06:29:47;;;;;;;4.90;2.60;;;21.70;47.60;;;;;;596899;92;3002022;-33
2020/12/03 06:32:51;;;;;;;3.30;2.65;;;21.70;47.40;;;;;;601019;92;3002003;-33
2020/12/03 06:35:37;;;;;;;2.65;2.45;;;21.80;47.60;;;;;;589314;93;3002454;-33
2020/12/03 06:38:37;;;;;;;4.00;2.67;;;21.90;47.70;;;;;;599727;91;3002652;-33
2020/12/03 06:41:33;;;;;;;5.65;2.65;;;21.90;47.40;;;;;;600445;91;3002344;-33
2020/12/03 06:44:07;;;;;;;10.80;2.62;;;21.90;47.30;;;;;;599911;91;3002007;-32
2020/12/03 06:46:49;;;;;;;4.53;2.60;;;22.00;47.20;;;;;;596046;92;3002857;-32
2020/12/03 06:49:37;;;;;;;5.22;3.17;;;22.00;47.10;;;;;;599195;92;3003137;-33
2020/12/03 06:52:28;;;;;;;3.70;2.60;;;22.00;47.00;;;;;;597528;90;3002036;-31
2020/12/03 06:55:21;;;;;;;2.92;2.52;;;22.10;46.90;;;;;;604065;90;3003613;-31
2020/12/03 06:58:15;;;;;;;4.37;2.72;;;22.10;46.80;;;;;;602657;91;3002328;-31
2020/12/03 07:01:03;;;;;;;4.30;2.67;;;22.20;46.90;;;;;;603011;92;3002424;-31
2020/12/03 07:03:51;;;;;;;3.70;2.45;;;22.20;46.60;;;;;;597917;92;3001976;-32
2020/12/03 07:06:27;;;;;;;3.00;2.35;;;22.20;46.60;;;;;;596513;91;3002005;-31
2020/12/03 07:09:14;;;;;;;4.58;2.67;;;22.20;46.50;;;;;;599736;92;3003089;-31
2020/12/03 07:12:05;;;;;;;4.37;2.15;;;22.30;46.40;;;;;;597135;92;3002474;-32
2020/12/03 07:15:08;;;;;;;2.98;2.15;;;22.30;46.30;;;;;;600391;91;3002635;-34
2020/12/03 07:18:12;;;;;;;2.95;2.27;;;22.30;46.40;;;;;;599304;92;3002297;-34
2020/12/03 07:20:54;;;;;;;2.95;2.58;;;22.40;46.50;;;;;;602368;91;3002021;-31
2020/12/03 07:23:28;;;;;;;5.10;2.70;;;22.40;46.20;;;;;;596303;93;3002196;-33
2020/12/03 07:25:57;;;;;;;2.70;2.20;;;22.40;46.20;;;;;;589114;93;3002036;-33
2020/12/03 07:28:28;;;;;;;3.30;2.30;;;22.50;46.30;;;;;;592922;91;3003149;-32
2020/12/03 07:30:58;;;;;;;3.60;2.52;;;22.50;46.40;;;;;;599602;92;3002556;-31
2020/12/03 07:33:40;;;;;;;5.95;2.50;;;22.50;46.10;;;;;;594509;93;3001993;-32
2020/12/03 07:36:22;;;;;;;4.60;2.72;;;22.50;46.10;;;;;;594918;92;3002016;-32
2020/12/03 07:39:01;;;;;;;4.28;2.45;;;22.60;45.90;;;;;;598338;92;3002638;-33
2020/12/03 07:41:32;;;;;;;5.08;2.45;;;22.60;45.90;;;;;;599759;92;3002837;-32
2020/12/03 07:44:11;;;;;;;3.00;2.42;;;22.60;45.90;;;;;;601154;92;3002090;-32
2020/12/03 07:46:40;;;;;;;7.55;2.45;;;22.60;45.90;;;;;;601084;92;3003434;-33
2020/12/03 07:49:09;;;;;;;3.62;2.40;;;22.70;45.70;;;;;;589779;94;3002307;-32
2020/12/03 07:51:37;;;;;;;3.60;2.30;;;22.70;46.30;;;;;;587099;94;3002603;-34
2020/12/03 07:54:20;;;;;;;2.58;2.27;;;22.70;45.30;;;;;;598678;92;3001713;-35
2020/12/03 07:56:49;;;;;;;3.35;2.47;;;22.70;45.30;;;;;;599771;92;3002083;-34
2020/12/03 07:59:29;;;;;;;2.40;2.20;;;22.70;45.30;;;;;;600454;92;3002505;-34
2020/12/03 08:01:59;;;;;;;3.37;2.20;;;22.70;45.30;;;;;;600430;92;3001736;-34
2020/12/03 08:04:32;;;;;;;4.37;2.10;;;22.70;46.20;;;;;;600380;92;3001664;-34
2020/12/03 08:07:07;;;;;;;;;;;22.70;45.60;;;;;;593086;94;3002017;-32
2020/12/03 08:09:43;;;;;;;3.45;2.30;;;22.70;45.70;;;;;;584768;94;3002385;-34
2020/12/03 08:12:15;;;;;;;4.03;2.52;;;22.70;45.70;;;;;;583814;95;3002410;-33
2020/12/03 08:14:48;;;;;;;6.12;2.00;;;22.70;45.60;;;;;;599750;91;3002005;-33
2020/12/03 08:17:25;;;;;;;5.33;1.98;;;22.80;45.70;;;;;;599780;92;3002439;-32
2020/12/03 08:20:15;;;;;;;2.58;2.15;;;22.80;45.50;;;;;;599107;92;3002123;-33
2020/12/03 08:22:48;;;;;;;3.85;2.00;;;22.80;45.60;;;;;;600446;92;3001994;-32
2020/12/03 08:25:28;;;;;;;2.77;1.95;;;22.80;45.60;;;;;;604270;91;3001625;-33
2020/12/03 08:28:00;;;;;;;2.25;2.05;;;22.80;45.60;;;;;;602792;92;3001693;-33
2020/12/03 08:30:40;;;;;;;2.58;2.17;;;22.80;45.80;;;;;;600053;92;3001636;-32
2020/12/03 08:33:15;;;;;;;10.38;2.10;;;22.80;45.80;;;;;;600733;90;3001960;-32
2020/12/03 08:35:57;;;;;;;2.87;2.00;;;22.80;45.30;;;;;;590090;94;3002316;-32
2020/12/03 08:38:32;;;;;;;8.40;2.33;;;22.80;45.30;;;;;;598002;91;3002011;-32
2020/12/03 08:41:05;;;;;;;2.95;2.17;;;22.80;45.50;;;;;;594876;93;3001930;-35
2020/12/03 08:43:33;;;;;;;7.90;1.82;;;22.90;44.80;;;;;;598472;92;3002035;-32
2020/12/03 08:46:06;;;;;;;3.10;2.05;;;22.90;45.40;;;;;;599165;93;3001648;-32
2020/12/03 08:48:36;;;;;;;3.70;2.52;;;22.90;45.30;;;;;;601939;92;3002052;-32
2020/12/03 08:51:08;;;;;;;2.90;2.30;;;22.90;45.50;;;;;;594523;93;3001668;-33
2020/12/03 08:53:36;;;;;;;3.55;2.27;;;22.90;45.30;;;;;;601096;92;3001968;-32
2020/12/03 08:56:19;;;;;;;3.05;2.37;;;22.90;45.30;;;;;;599035;92;3001942;-33
2020/12/03 08:59:11;;;;;;;4.40;2.05;;;22.90;45.20;;;;;;601333;92;3001731;-32
2020/12/03 09:01:47;;;;;;;2.67;2.00;;;23.00;46.10;;;;;;600998;92;3002402;-32
2020/12/03 09:04:24;;;;;;;4.58;2.62;;;23.00;46.30;;;;;;605531;92;3001580;-33
2020/12/03 09:06:54;;;;;;;4.00;2.45;;;23.00;45.30;;;;;;593015;92;3001932;-32
2020/12/03 09:09:24;;;;;;;7.50;3.37;;;23.00;45.20;;;;;;595818;92;3001955;-32
2020/12/03 09:11:52;;;;;;;2.92;2.08;;;23.00;46.10;;;;;;606413;92;3001921;-34
2020/12/03 09:14:21;;;;;;;4.50;2.30;;;23.00;45.20;;;;;;602617;92;3001954;-34
2020/12/03 09:16:50;;;;;;;4.15;2.25;;;;;;;;;;602413;92;3002337;-33
2020/12/03 09:19:27;;;;;;;3.22;2.72;;;23.00;45.10;;;;;;593136;92;3002003;-33
2020/12/03 09:21:57;;;;;;;3.20;2.15;;;23.00;45.30;;;;;;584662;93;3002783;-32
2020/12/03 09:24:26;;;;;;;3.40;2.60;;;23.00;45.30;;;;;;594589;93;3001979;-32
2020/12/03 09:26:57;;;;;;;5.45;2.15;;;23.00;45.30;;;;;;587509;94;3001655;-34
2020/12/03 09:29:25;;;;;;;11.15;2.12;;;23.00;45.40;;;;;;593392;93;3002380;-32
2020/12/03 09:32:01;;;;;;;2.22;2.00;;;23.00;45.30;;;;;;592047;93;3002033;-33
2020/12/03 09:34:32;;;;;;;3.10;2.30;;;22.90;44.80;;;;;;586567;94;3002376;-33
2020/12/03 09:37:00;;;;;;;3.12;2.47;;;23.00;45.30;;;;;;595165;92;3001593;-34
2020/12/03 09:39:29;;;;;;;2.45;2.20;;;23.00;45.30;;;;;;594556;93;3001836;-34
2020/12/03 09:41:58;;;;;;;2.95;2.62;;;23.00;45.30;;;;;;596713;92;3003660;-33
2020/12/03 09:44:26;;;;;;;2.72;1.92;;;23.00;45.20;;;;;;592509;92;3002261;-32
2020/12/03 09:46:56;;;;;;;8.48;2.12;;;23.00;45.30;;;;;;591299;92;3003206;-34
2020/12/03 09:49:24;;;;;;;3.02;2.20;;;23.00;45.20;;;;;;593476;93;3002007;-32
2020/12/03 09:51:52;;;;;;;2.67;2.20;;;23.00;45.10;;;;;;585127;94;3002530;-32
2020/12/03 09:54:19;;;;;;;2.98;2.35;;;23.00;45.40;;;;;;593739;93;3002015;-33
2020/12/03 09:56:47;;;;;;;2.35;2.08;;;23.00;45.10;;;;;;594529;93;3001988;-34
2020/12/03 09:59:15;;;;;;;3.00;2.00;;;23.00;45.00;;;;;;587736;93;3001941;-33
2020/12/03 10:01:58;;;;;;;2.92;2.00;;;23.00;45.10;;;;;;591792;92;3001981;-32
2020/12/03 10:05:00;;;;;;;4.10;2.47;;;23.00;45.10;;;;;;594612;93;3002055;-32
2020/12/03 10:07:40;;;;;;;1.87;1.70;;;23.00;45.00;;;;;;595114;93;3001572;-33
2020/12/03 10:10:26;;;;;;;3.33;2.80;;;23.00;45.00;;;;;;595028;93;3002002;-35
2020/12/03 10:13:13;;;;;;;2.40;2.02;;;;;;;;;;588802;93;3003585;-35
2020/12/03 10:15:46;;;;;;;2.85;1.87;;;23.00;45.00;;;;;;581580;95;3002604;-34
2020/12/03 10:18:23;;;;;;;3.72;2.02;;;23.00;45.00;;;;;;595991;93;3001982;-33
2020/12/03 10:20:52;;;;;;;7.60;2.25;;;23.00;45.10;;;;;;589406;93;3002287;-33
2020/12/03 10:23:40;;;;;;;2.12;1.92;;;23.10;45.10;;;;;;586122;93;3002434;-33
2020/12/03 10:26:17;;;;;;;2.52;2.20;;;23.00;45.00;;;;;;587647;92;3002439;-33
2020/12/03 10:28:56;;;;;;;2.58;2.10;;;23.00;45.00;;;;;;580623;94;3002316;-33
2020/12/03 10:31:25;;;;;;;17.65;2.30;;;23.00;45.20;;;;;;587108;93;3003133;-33
2020/12/03 10:33:53;;;;;;;2.52;2.33;;;23.00;45.00;;;;;;588901;93;3001947;-34
2020/12/03 10:36:26;;;;;;;2.37;2.08;;;23.00;45.00;;;;;;589637;92;3003179;-34
2020/12/03 10:38:56;;;;;;;3.60;2.58;;;23.00;45.00;;;;;;594744;92;3001988;-33
2020/12/03 10:41:32;;;;;;;2.30;1.98;;;23.00;44.90;;;;;;591680;93;3001663;-34
2020/12/03 10:44:02;;;;;;;2.80;2.02;;;23.00;45.00;;;;;;592783;93;3001674;-34
2020/12/03 10:46:33;;;;;;;3.67;2.47;;;23.00;44.90;;;;;;588220;92;3002700;-33
2020/12/03 10:49:02;;;;;;;6.15;2.37;;;23.00;44.90;;;;;;590946;93;3001678;-34
2020/12/03 10:51:30;;;;;;;2.85;2.47;;;23.00;44.80;;;;;;589161;94;3001658;-33
2020/12/03 10:53:58;;;;;;;3.80;2.30;;;23.00;44.80;;;;;;590194;93;3002367;-33
2020/12/03 10:56:27;;;;;;;3.87;2.20;;;22.90;44.90;;;;;;575803;94;3002361;-33
2020/12/03 10:59:11;;;;;;;2.50;2.20;;;23.00;44.90;;;;;;593900;93;3001945;-33
2020/12/03 11:01:37;;;;;;;2.50;2.17;;;23.00;44.90;;;;;;592954;93;3002018;-32
2020/12/03 11:04:10;;;;;;;3.00;2.10;;;23.00;44.80;;;;;;591234;92;3002315;-33
2020/12/03 11:06:38;;;;;;;2.47;2.15;;;23.00;44.90;;;;;;589216;93;3002224;-33
2020/12/03 11:09:06;;;;;;;2.47;2.00;;;23.00;44.80;;;;;;584882;93;3001735;-33
2020/12/03 11:11:36;;;;;;;2.10;1.90;;;23.00;44.80;;;;;;574014;96;3001600;-33
2020/12/03 11:14:14;;;;;;;2.35;1.90;;;23.00;44.80;;;;;;573617;93;3001995;-33
2020/12/03 11:16:54;;;;;;;2.37;2.17;;;23.00;44.80;;;;;;589030;93;3002149;-33
2020/12/03 11:19:24;;;;;;;2.80;2.05;;;23.00;44.70;;;;;;590764;93;3001961;-33
2020/12/03 11:22:06;;;;;;;2.22;1.77;;;23.00;44.70;;;;;;593084;92;3002069;-33
2020/12/03 11:24:40;;;;;;;2.62;2.20;;;23.00;44.70;;;;;;595762;92;3002010;-32
2020/12/03 11:27:08;;;;;;;;;;;23.00;44.70;;;;;;599289;92;3002218;-33
2020/12/03 11:29:36;;;;;;;2.33;2.10;;;23.00;44.80;;;;;;593953;92;3002265;-33
2020/12/03 11:32:04;;;;;;;2.45;2.10;;;22.90;44.80;;;;;;600421;92;3002051;-33
2020/12/03 11:34:38;;;;;;;2.27;1.95;;;22.90;45.30;;;;;;589845;93;3002001;-33
2020/12/03 11:37:07;;;;;;;2.02;1.77;;;23.00;44.70;;;;;;582261;95;3002154;-39
2020/12/03 11:39:35;;;;;;;3.35;2.02;;;22.90;44.70;;;;;;595989;91;3002599;-33
2020/12/03 11:50:37;;;;;;;2.50;1.98;;;23.00;44.70;;;;;;593816;91;3002053;-33
2020/12/03 11:53:06;;;;;;;6.45;1.80;;;23.00;44.60;;;;;;598693;92;3001634;-34
2020/12/03 11:55:39;;;;;;;4.90;2.10;;;23.50;60.80;;;;;;596275;92;3003520;-34
2020/12/03 11:58:09;;;;;;;2.65;1.85;;;23.20;58.70;;;;;;593051;92;3001954;-33
2020/12/03 12:00:37;;;;;;;4.42;2.00;;;23.10;57.10;;;;;;580130;94;3002103;-34
2020/12/03 12:03:10;;;;;;;2.58;1.98;;;23.10;57.50;;;;;;589869;93;3002301;-33
2020/12/03 12:10:59;;;;;;;2.60;1.95;;;23.10;55.10;;;;;;598589;92;3002023;-32
2020/12/03 12:13:15;;;;;;;2.67;2.10;;;23.00;54.30;;;;;;599314;91;3003953;-33
2020/12/03 12:15:43;;;;;;;2.25;1.80;;;23.00;53.40;;;;;;599250;92;3002598;-33
2020/12/03 12:18:11;;;;;;;1.90;1.70;;;23.00;53.60;;;;;;587568;92;3002673;-33
2020/12/03 12:20:40;;;;;;;2.37;2.15;;;23.00;53.40;;;;;;597106;91;3002378;-33
2020/12/03 12:23:07;;;;;;;3.15;1.90;;;23.10;53.30;;;;;;596770;91;3002830;-32
2020/12/03 12:25:35;;;;;;;2.70;2.22;;;23.10;53.30;;;;;;595322;92;3002051;-33
2020/12/03 12:28:03;;;;;;;2.02;1.85;;;23.10;53.60;;;;;;593468;92;3002053;-34
2020/12/03 12:30:33;;;;;;;4.50;1.95;;;23.10;53.40;;;;;;592091;92;3002050;-33
2020/12/03 12:33:01;;;;;;;3.62;2.05;;;23.10;53.40;;;;;;595493;92;3001893;-34
2020/12/03 12:35:28;;;;;;;6.17;1.72;;;23.10;53.60;;;;;;591464;92;3002004;-34
2020/12/03 12:37:56;;;;;;;2.27;2.05;;;23.00;53.40;;;;;;596832;91;3001616;-34
2020/12/03 12:40:24;;;;;;;2.02;1.70;;;23.00;53.30;;;;;;598481;92;3001646;-34
2020/12/03 12:42:51;;;;;;;2.10;1.90;;;23.00;53.40;;;;;;588325;93;3001684;-34
2020/12/03 12:45:19;;;;;;;4.00;1.77;;;23.00;53.40;;;;;;583238;93;3001695;-34
2020/12/03 12:47:48;;;;;;;2.52;2.10;;;23.00;53.40;;;;;;599827;91;3001989;-34
2020/12/03 12:50:16;;;;;;;3.33;2.35;;;23.00;53.40;;;;;;598767;92;3003549;-34
2020/12/03 12:52:44;;;;;;;2.95;2.40;;;22.90;53.30;;;;;;582798;93;3002028;-34
2020/12/03 12:55:11;;;;;;;2.98;2.08;;;22.90;53.30;;;;;;590722;92;3002004;-33
2020/12/03 12:57:39;;;;;;;3.00;2.22;;;22.90;53.30;;;;;;589373;93;3002013;-34
2020/12/03 13:00:07;;;;;;;3.83;1.98;;;22.90;53.30;;;;;;596239;91;3002128;-33
2020/12/03 13:02:35;;;;;;;4.28;1.95;;;22.90;53.30;;;;;;587253;93;3002255;-32
2020/12/03 13:05:03;;;;;;;2.45;1.95;;;22.90;53.30;;;;;;589329;92;3003411;-33
2020/12/03 13:07:30;;;;;;;4.33;2.15;;;22.90;53.30;;;;;;596748;92;3001982;-33
2020/12/03 13:09:58;;;;;;;2.20;1.82;;;22.90;53.30;;;;;;590967;92;3002013;-32
2020/12/03 13:12:26;;;;;;;2.52;1.90;;;23.00;53.30;;;;;;592500;93;3002426;-33
2020/12/03 13:14:53;;;;;;;2.65;2.00;;;23.00;53.60;;;;;;584041;93;3002015;-33
2020/12/03 13:17:21;;;;;;;3.33;2.10;;;23.00;54.20;;;;;;593489;92;3002041;-33
2020/12/03 13:19:49;;;;;;;3.67;1.82;;;23.00;54.20;;;;;;595756;91;3002043;-33